Minden, Canada
Current Conditions -  °F | °C
As of 10:00 AM on Thursday 23 Oct 2014 (Local Time) from CYQA Reporting Station
Clear Clear  
Wind Chill: 38°   Ceiling: Unl
Heat Index: 43°   Visibility: 9mi
Dew Point: 37°   Wind: 8mph
Humidity: 81%   Direction: 330°NNW
Pressure: 30.18"   Gusts: NA
Location:  44.93°N, 78.73°W
Report Text: CYQA 231400Z AUTO 33007KT 9SM CLR 06/03 A3018 RMK SLP229
Loading
Personal Weather Stations






























Interactive Weather Map
Tropical Storm Tracking
New forecast layout! Learn more

10-Day Weather Forecast

Advertisements
Track Severe Weather on mobile